sensor_id;sensor_type;location;lat;lon;timestamp;temperature;humidity
36800;DHT22;22752;51.960;5.886;2022-12-07T00:01:37;4.40;99.90
36800;DHT22;22752;51.960;5.886;2022-12-07T00:04:07;4.40;99.90
36800;DHT22;22752;51.960;5.886;2022-12-07T00:06:38;4.30;99.90
36800;DHT22;22752;51.960;5.886;2022-12-07T00:09:06;4.20;99.90
36800;DHT22;22752;51.960;5.886;2022-12-07T00:11:32;4.10;99.90
36800;DHT22;22752;51.960;5.886;2022-12-07T00:14:01;4.10;99.90
36800;DHT22;22752;51.960;5.886;2022-12-07T00:16:30;4.00;99.90
36800;DHT22;22752;51.960;5.886;2022-12-07T00:18:56;3.80;99.90
36800;DHT22;22752;51.960;5.886;2022-12-07T00:21:30;3.70;99.90
36800;DHT22;22752;51.960;5.886;2022-12-07T00:23:56;3.70;99.90
36800;DHT22;22752;51.960;5.886;2022-12-07T00:26:28;3.60;99.90
36800;DHT22;22752;51.960;5.886;2022-12-07T00:29:00;3.50;99.90
36800;DHT22;22752;51.960;5.886;2022-12-07T00:31:28;3.40;99.90
36800;DHT22;22752;51.960;5.886;2022-12-07T00:33:54;3.40;99.90
36800;DHT22;22752;51.960;5.886;2022-12-07T00:36:22;3.30;99.90
36800;DHT22;22752;51.960;5.886;2022-12-07T00:38:48;3.30;99.90
36800;DHT22;22752;51.960;5.886;2022-12-07T00:41:19;3.30;99.90
36800;DHT22;22752;51.960;5.886;2022-12-07T00:43:47;3.20;99.90
36800;DHT22;22752;51.960;5.886;2022-12-07T00:46:13;3.20;99.90
36800;DHT22;22752;51.960;5.886;2022-12-07T00:48:39;3.10;99.90
36800;DHT22;22752;51.960;5.886;2022-12-07T00:51:05;3.10;99.90
36800;DHT22;22752;51.960;5.886;2022-12-07T00:53:33;3.10;99.90
36800;DHT22;22752;51.960;5.886;2022-12-07T00:56:07;3.10;99.90
36800;DHT22;22752;51.960;5.886;2022-12-07T00:58:34;3.20;99.90
36800;DHT22;22752;51.960;5.886;2022-12-07T01:01:00;3.20;99.90
36800;DHT22;22752;51.960;5.886;2022-12-07T01:03:27;3.20;99.90
36800;DHT22;22752;51.960;5.886;2022-12-07T01:05:54;3.20;99.90
36800;DHT22;22752;51.960;5.886;2022-12-07T01:08:21;3.00;99.90
36800;DHT22;22752;51.960;5.886;2022-12-07T01:10:47;3.00;99.90
36800;DHT22;22752;51.960;5.886;2022-12-07T01:13:14;2.90;99.90
36800;DHT22;22752;51.960;5.886;2022-12-07T01:15:41;2.80;99.90
36800;DHT22;22752;51.960;5.886;2022-12-07T01:18:07;2.80;99.90
36800;DHT22;22752;51.960;5.886;2022-12-07T01:20:33;2.70;99.90
36800;DHT22;22752;51.960;5.886;2022-12-07T01:22:58;2.70;99.90
36800;DHT22;22752;51.960;5.886;2022-12-07T01:25:24;2.60;99.90
36800;DHT22;22752;51.960;5.886;2022-12-07T01:27:49;2.60;99.90
36800;DHT22;22752;51.960;5.886;2022-12-07T01:30:15;2.50;99.90
36800;DHT22;22752;51.960;5.886;2022-12-07T01:32:41;2.50;99.90
36800;DHT22;22752;51.960;5.886;2022-12-07T01:35:07;2.60;99.90
36800;DHT22;22752;51.960;5.886;2022-12-07T01:37:37;2.50;99.90
36800;DHT22;22752;51.960;5.886;2022-12-07T01:40:05;2.50;99.90
36800;DHT22;22752;51.960;5.886;2022-12-07T01:42:31;2.40;99.90
36800;DHT22;22752;51.960;5.886;2022-12-07T01:45:34;2.30;99.90
36800;DHT22;22752;51.960;5.886;2022-12-07T01:48:02;2.30;99.90
36800;DHT22;22752;51.960;5.886;2022-12-07T01:50:28;2.20;99.90
36800;DHT22;22752;51.960;5.886;2022-12-07T01:52:59;2.30;99.90
36800;DHT22;22752;51.960;5.886;2022-12-07T01:55:27;2.20;99.90
36800;DHT22;22752;51.960;5.886;2022-12-07T01:57:54;2.20;99.90
36800;DHT22;22752;51.960;5.886;2022-12-07T02:00:20;2.10;99.90
36800;DHT22;22752;51.960;5.886;2022-12-07T02:03:07;2.10;99.90
36800;DHT22;22752;51.960;5.886;2022-12-07T02:05:35;2.00;99.90
36800;DHT22;22752;51.960;5.886;2022-12-07T02:08:03;2.10;99.90
36800;DHT22;22752;51.960;5.886;2022-12-07T02:10:30;2.00;99.90
36800;DHT22;22752;51.960;5.886;2022-12-07T02:29:20;1.70;99.90
36800;DHT22;22752;51.960;5.886;2022-12-07T02:34:56;1.70;99.90
36800;DHT22;22752;51.960;5.886;2022-12-07T02:40:33;1.60;99.90
36800;DHT22;22752;51.960;5.886;2022-12-07T02:43:24;1.70;99.90
36800;DHT22;22752;51.960;5.886;2022-12-07T02:45:52;1.70;99.90
36800;DHT22;22752;51.960;5.886;2022-12-07T02:48:20;1.70;99.90
36800;DHT22;22752;51.960;5.886;2022-12-07T02:50:50;1.70;99.90
36800;DHT22;22752;51.960;5.886;2022-12-07T02:56:01;1.70;99.90
36800;DHT22;22752;51.960;5.886;2022-12-07T03:01:11;1.70;99.90
36800;DHT22;22752;51.960;5.886;2022-12-07T03:03:43;1.70;99.90
36800;DHT22;22752;51.960;5.886;2022-12-07T03:06:16;1.70;99.90
36800;DHT22;22752;51.960;5.886;2022-12-07T03:08:46;1.70;99.90
36800;DHT22;22752;51.960;5.886;2022-12-07T03:11:30;1.70;99.90
36800;DHT22;22752;51.960;5.886;2022-12-07T03:14:09;1.80;99.90
36800;DHT22;22752;51.960;5.886;2022-12-07T03:16:54;1.90;99.90
36800;DHT22;22752;51.960;5.886;2022-12-07T03:19:23;1.90;99.90
36800;DHT22;22752;51.960;5.886;2022-12-07T03:22:10;2.00;99.90
36800;DHT22;22752;51.960;5.886;2022-12-07T03:24:50;1.90;99.90
36800;DHT22;22752;51.960;5.886;2022-12-07T03:27:37;2.00;99.90
36800;DHT22;22752;51.960;5.886;2022-12-07T03:32:53;2.20;99.90
36800;DHT22;22752;51.960;5.886;2022-12-07T03:35:24;2.30;99.90
36800;DHT22;22752;51.960;5.886;2022-12-07T03:37:55;2.40;99.90
36800;DHT22;22752;51.960;5.886;2022-12-07T03:40:33;2.60;99.90
36800;DHT22;22752;51.960;5.886;2022-12-07T03:43:01;2.70;99.90
36800;DHT22;22752;51.960;5.886;2022-12-07T03:45:43;2.70;99.90
36800;DHT22;22752;51.960;5.886;2022-12-07T03:48:24;2.90;99.90
36800;DHT22;22752;51.960;5.886;2022-12-07T03:51:03;2.90;99.90
36800;DHT22;22752;51.960;5.886;2022-12-07T03:53:44;2.90;99.90
36800;DHT22;22752;51.960;5.886;2022-12-07T03:56:12;2.90;99.90
36800;DHT22;22752;51.960;5.886;2022-12-07T03:58:40;2.90;99.90
36800;DHT22;22752;51.960;5.886;2022-12-07T04:01:06;2.90;99.90
36800;DHT22;22752;51.960;5.886;2022-12-07T04:03:32;2.90;99.90
36800;DHT22;22752;51.960;5.886;2022-12-07T04:05:57;2.90;99.90
36800;DHT22;22752;51.960;5.886;2022-12-07T04:08:24;2.90;99.90
36800;DHT22;22752;51.960;5.886;2022-12-07T04:10:50;2.90;99.90
36800;DHT22;22752;51.960;5.886;2022-12-07T04:13:15;2.80;99.90
36800;DHT22;22752;51.960;5.886;2022-12-07T04:15:41;2.80;99.90
36800;DHT22;22752;51.960;5.886;2022-12-07T04:18:07;2.70;99.90
36800;DHT22;22752;51.960;5.886;2022-12-07T04:20:32;2.70;99.90
36800;DHT22;22752;51.960;5.886;2022-12-07T04:22:58;2.70;99.90
36800;DHT22;22752;51.960;5.886;2022-12-07T04:25:24;2.60;99.90
36800;DHT22;22752;51.960;5.886;2022-12-07T04:27:49;2.50;99.90
36800;DHT22;22752;51.960;5.886;2022-12-07T04:30:15;2.50;99.90
36800;DHT22;22752;51.960;5.886;2022-12-07T04:32:40;2.50;99.90
36800;DHT22;22752;51.960;5.886;2022-12-07T04:35:06;2.60;99.90
36800;DHT22;22752;51.960;5.886;2022-12-07T04:37:32;2.50;99.90
36800;DHT22;22752;51.960;5.886;2022-12-07T04:39:58;2.60;99.90
36800;DHT22;22752;51.960;5.886;2022-12-07T04:42:23;2.60;99.90
36800;DHT22;22752;51.960;5.886;2022-12-07T04:44:49;2.70;99.90
36800;DHT22;22752;51.960;5.886;2022-12-07T04:47:15;2.70;99.90
36800;DHT22;22752;51.960;5.886;2022-12-07T04:49:40;2.80;99.90
36800;DHT22;22752;51.960;5.886;2022-12-07T04:52:06;2.80;99.90
36800;DHT22;22752;51.960;5.886;2022-12-07T04:54:31;2.90;99.90
36800;DHT22;22752;51.960;5.886;2022-12-07T04:56:57;2.90;99.90
36800;DHT22;22752;51.960;5.886;2022-12-07T04:59:22;3.00;99.90
36800;DHT22;22752;51.960;5.886;2022-12-07T05:01:48;3.10;99.90
36800;DHT22;22752;51.960;5.886;2022-12-07T05:04:14;3.00;99.90
36800;DHT22;22752;51.960;5.886;2022-12-07T05:06:41;3.00;99.90
36800;DHT22;22752;51.960;5.886;2022-12-07T05:09:07;2.90;99.90
36800;DHT22;22752;51.960;5.886;2022-12-07T05:11:33;2.80;99.90
36800;DHT22;22752;51.960;5.886;2022-12-07T05:14:11;2.70;99.90
36800;DHT22;22752;51.960;5.886;2022-12-07T05:16:38;2.70;99.90
36800;DHT22;22752;51.960;5.886;2022-12-07T05:19:04;2.60;99.90
36800;DHT22;22752;51.960;5.886;2022-12-07T05:21:30;2.50;99.90
36800;DHT22;22752;51.960;5.886;2022-12-07T05:23:56;2.30;99.90
36800;DHT22;22752;51.960;5.886;2022-12-07T05:26:22;2.30;99.90
36800;DHT22;22752;51.960;5.886;2022-12-07T05:28:52;2.10;99.90
36800;DHT22;22752;51.960;5.886;2022-12-07T05:31:18;2.00;99.90
36800;DHT22;22752;51.960;5.886;2022-12-07T05:33:44;2.00;99.90
36800;DHT22;22752;51.960;5.886;2022-12-07T05:36:09;2.00;99.90
36800;DHT22;22752;51.960;5.886;2022-12-07T05:38:35;1.90;99.90
36800;DHT22;22752;51.960;5.886;2022-12-07T05:41:05;1.90;99.90
36800;DHT22;22752;51.960;5.886;2022-12-07T05:43:32;2.00;99.90
36800;DHT22;22752;51.960;5.886;2022-12-07T05:45:58;2.10;99.90
36800;DHT22;22752;51.960;5.886;2022-12-07T05:48:24;2.10;99.90
36800;DHT22;22752;51.960;5.886;2022-12-07T05:50:51;2.20;99.90
36800;DHT22;22752;51.960;5.886;2022-12-07T05:53:17;2.20;99.90
36800;DHT22;22752;51.960;5.886;2022-12-07T05:55:43;2.20;99.90
36800;DHT22;22752;51.960;5.886;2022-12-07T05:58:09;2.10;99.90
36800;DHT22;22752;51.960;5.886;2022-12-07T06:00:55;2.10;99.90
36800;DHT22;22752;51.960;5.886;2022-12-07T06:03:21;2.10;99.90
36800;DHT22;22752;51.960;5.886;2022-12-07T06:05:47;2.00;99.90
36800;DHT22;22752;51.960;5.886;2022-12-07T06:08:12;2.00;99.90
36800;DHT22;22752;51.960;5.886;2022-12-07T06:10:40;1.90;99.90
36800;DHT22;22752;51.960;5.886;2022-12-07T06:13:05;1.90;99.90
36800;DHT22;22752;51.960;5.886;2022-12-07T06:15:31;1.80;99.90
36800;DHT22;22752;51.960;5.886;2022-12-07T06:17:56;1.80;99.90
36800;DHT22;22752;51.960;5.886;2022-12-07T06:20:22;1.80;99.90
36800;DHT22;22752;51.960;5.886;2022-12-07T06:22:48;1.70;99.90
36800;DHT22;22752;51.960;5.886;2022-12-07T06:25:13;1.70;99.90
36800;DHT22;22752;51.960;5.886;2022-12-07T06:27:39;1.70;99.90
36800;DHT22;22752;51.960;5.886;2022-12-07T06:30:05;1.60;99.90
36800;DHT22;22752;51.960;5.886;2022-12-07T06:32:33;1.60;99.90
36800;DHT22;22752;51.960;5.886;2022-12-07T06:34:59;1.60;99.90
36800;DHT22;22752;51.960;5.886;2022-12-07T06:37:25;1.60;99.90
36800;DHT22;22752;51.960;5.886;2022-12-07T06:39:50;1.50;99.90
36800;DHT22;22752;51.960;5.886;2022-12-07T06:42:16;1.50;99.90
36800;DHT22;22752;51.960;5.886;2022-12-07T06:44:42;1.40;99.90
36800;DHT22;22752;51.960;5.886;2022-12-07T06:47:08;1.40;99.90
36800;DHT22;22752;51.960;5.886;2022-12-07T06:49:35;1.40;99.90
36800;DHT22;22752;51.960;5.886;2022-12-07T06:52:00;1.30;99.90
36800;DHT22;22752;51.960;5.886;2022-12-07T06:54:26;1.30;99.90
36800;DHT22;22752;51.960;5.886;2022-12-07T06:56:52;1.30;99.90
36800;DHT22;22752;51.960;5.886;2022-12-07T06:59:18;1.40;99.90
36800;DHT22;22752;51.960;5.886;2022-12-07T07:01:43;1.40;99.90
36800;DHT22;22752;51.960;5.886;2022-12-07T07:04:09;1.40;99.90
36800;DHT22;22752;51.960;5.886;2022-12-07T07:06:35;1.40;99.90
36800;DHT22;22752;51.960;5.886;2022-12-07T07:09:01;1.40;99.90
36800;DHT22;22752;51.960;5.886;2022-12-07T07:11:27;1.50;99.90
36800;DHT22;22752;51.960;5.886;2022-12-07T07:13:52;1.60;99.90
36800;DHT22;22752;51.960;5.886;2022-12-07T07:16:19;1.60;99.90
36800;DHT22;22752;51.960;5.886;2022-12-07T07:18:44;1.60;99.90
36800;DHT22;22752;51.960;5.886;2022-12-07T07:21:10;1.70;99.90
36800;DHT22;22752;51.960;5.886;2022-12-07T07:23:36;1.60;99.90
36800;DHT22;22752;51.960;5.886;2022-12-07T07:26:01;1.60;99.90
36800;DHT22;22752;51.960;5.886;2022-12-07T07:28:27;1.50;99.90
36800;DHT22;22752;51.960;5.886;2022-12-07T07:30:52;1.50;99.90
36800;DHT22;22752;51.960;5.886;2022-12-07T07:33:18;1.50;99.90
36800;DHT22;22752;51.960;5.886;2022-12-07T07:35:43;1.40;99.90
36800;DHT22;22752;51.960;5.886;2022-12-07T07:38:09;1.40;99.90
36800;DHT22;22752;51.960;5.886;2022-12-07T07:40:35;1.30;99.90
36800;DHT22;22752;51.960;5.886;2022-12-07T07:43:01;1.30;99.90
36800;DHT22;22752;51.960;5.886;2022-12-07T07:45:27;1.30;99.90
36800;DHT22;22752;51.960;5.886;2022-12-07T07:47:52;1.30;99.90
36800;DHT22;22752;51.960;5.886;2022-12-07T07:50:19;1.40;99.90
36800;DHT22;22752;51.960;5.886;2022-12-07T07:52:45;1.30;99.90
36800;DHT22;22752;51.960;5.886;2022-12-07T07:55:11;1.30;99.90
36800;DHT22;22752;51.960;5.886;2022-12-07T07:57:38;1.40;99.90
36800;DHT22;22752;51.960;5.886;2022-12-07T08:00:07;1.40;99.90
36800;DHT22;22752;51.960;5.886;2022-12-07T08:02:33;1.40;99.90
36800;DHT22;22752;51.960;5.886;2022-12-07T08:04:59;1.40;99.90
36800;DHT22;22752;51.960;5.886;2022-12-07T08:07:25;1.40;99.90
36800;DHT22;22752;51.960;5.886;2022-12-07T08:09:52;1.40;99.90
36800;DHT22;22752;51.960;5.886;2022-12-07T08:12:18;1.50;99.90
36800;DHT22;22752;51.960;5.886;2022-12-07T08:14:44;1.50;99.90
36800;DHT22;22752;51.960;5.886;2022-12-07T08:17:10;1.60;99.90
36800;DHT22;22752;51.960;5.886;2022-12-07T08:19:35;1.70;99.90
36800;DHT22;22752;51.960;5.886;2022-12-07T08:22:01;1.80;99.90
36800;DHT22;22752;51.960;5.886;2022-12-07T08:24:27;1.90;99.90
36800;DHT22;22752;51.960;5.886;2022-12-07T08:26:52;2.00;99.90
36800;DHT22;22752;51.960;5.886;2022-12-07T08:29:18;2.20;99.90
36800;DHT22;22752;51.960;5.886;2022-12-07T08:31:44;2.40;99.90
36800;DHT22;22752;51.960;5.886;2022-12-07T08:34:13;2.50;99.90
36800;DHT22;22752;51.960;5.886;2022-12-07T08:36:39;2.70;99.90
36800;DHT22;22752;51.960;5.886;2022-12-07T08:39:05;2.80;99.90
36800;DHT22;22752;51.960;5.886;2022-12-07T08:41:31;2.90;99.90
36800;DHT22;22752;51.960;5.886;2022-12-07T08:43:57;3.00;99.90
36800;DHT22;22752;51.960;5.886;2022-12-07T08:46:41;3.10;99.90
36800;DHT22;22752;51.960;5.886;2022-12-07T08:49:13;3.20;99.90
36800;DHT22;22752;51.960;5.886;2022-12-07T08:51:41;3.20;99.90
36800;DHT22;22752;51.960;5.886;2022-12-07T08:54:09;3.10;99.90
36800;DHT22;22752;51.960;5.886;2022-12-07T08:56:36;3.10;99.90
36800;DHT22;22752;51.960;5.886;2022-12-07T08:59:02;3.10;99.90
36800;DHT22;22752;51.960;5.886;2022-12-07T09:01:28;3.10;99.90
36800;DHT22;22752;51.960;5.886;2022-12-07T09:03:54;3.10;99.90
36800;DHT22;22752;51.960;5.886;2022-12-07T09:06:20;3.20;99.90
36800;DHT22;22752;51.960;5.886;2022-12-07T09:08:52;3.30;99.90
36800;DHT22;22752;51.960;5.886;2022-12-07T09:11:19;3.30;99.90
36800;DHT22;22752;51.960;5.886;2022-12-07T09:13:45;3.30;99.90
36800;DHT22;22752;51.960;5.886;2022-12-07T09:16:10;3.40;99.90
36800;DHT22;22752;51.960;5.886;2022-12-07T09:18:36;3.40;99.90
36800;DHT22;22752;51.960;5.886;2022-12-07T09:21:03;3.50;99.90
36800;DHT22;22752;51.960;5.886;2022-12-07T09:23:29;3.50;99.90
36800;DHT22;22752;51.960;5.886;2022-12-07T09:25:54;3.60;99.90
36800;DHT22;22752;51.960;5.886;2022-12-07T09:28:20;3.70;99.90
36800;DHT22;22752;51.960;5.886;2022-12-07T09:30:47;3.80;99.90
36800;DHT22;22752;51.960;5.886;2022-12-07T09:33:13;3.90;99.90
36800;DHT22;22752;51.960;5.886;2022-12-07T09:35:47;4.00;99.90
36800;DHT22;22752;51.960;5.886;2022-12-07T09:38:13;4.10;99.90
36800;DHT22;22752;51.960;5.886;2022-12-07T09:40:39;4.10;99.90
36800;DHT22;22752;51.960;5.886;2022-12-07T09:43:05;4.20;99.90
36800;DHT22;22752;51.960;5.886;2022-12-07T09:45:35;4.20;99.90
36800;DHT22;22752;51.960;5.886;2022-12-07T09:48:05;4.20;99.90
36800;DHT22;22752;51.960;5.886;2022-12-07T09:50:31;4.20;99.90
36800;DHT22;22752;51.960;5.886;2022-12-07T09:55:50;4.30;99.90
36800;DHT22;22752;51.960;5.886;2022-12-07T09:58:28;4.30;99.90
36800;DHT22;22752;51.960;5.886;2022-12-07T10:01:01;4.30;99.90
36800;DHT22;22752;51.960;5.886;2022-12-07T10:03:30;4.20;99.90
36800;DHT22;22752;51.960;5.886;2022-12-07T10:05:56;4.20;99.90
36800;DHT22;22752;51.960;5.886;2022-12-07T10:08:22;4.20;99.90
36800;DHT22;22752;51.960;5.886;2022-12-07T10:10:54;4.20;99.90
36800;DHT22;22752;51.960;5.886;2022-12-07T10:13:34;4.20;99.90
36800;DHT22;22752;51.960;5.886;2022-12-07T10:16:00;4.20;99.90
36800;DHT22;22752;51.960;5.886;2022-12-07T10:18:41;4.20;99.90
36800;DHT22;22752;51.960;5.886;2022-12-07T10:21:17;4.20;99.90
36800;DHT22;22752;51.960;5.886;2022-12-07T10:26:51;4.30;99.90
36800;DHT22;22752;51.960;5.886;2022-12-07T10:29:47;4.30;99.90
36800;DHT22;22752;51.960;5.886;2022-12-07T10:34:42;4.40;99.90
36800;DHT22;22752;51.960;5.886;2022-12-07T10:39:44;4.50;99.90
36800;DHT22;22752;51.960;5.886;2022-12-07T10:42:18;4.60;99.90
36800;DHT22;22752;51.960;5.886;2022-12-07T10:44:44;4.60;99.90
36800;DHT22;22752;51.960;5.886;2022-12-07T11:03:45;5.70;99.90
36800;DHT22;22752;51.960;5.886;2022-12-07T11:14:25;5.80;99.90
36800;DHT22;22752;51.960;5.886;2022-12-07T11:17:01;5.70;99.90
36800;DHT22;22752;51.960;5.886;2022-12-07T11:30:40;5.60;99.90
36800;DHT22;22752;51.960;5.886;2022-12-07T11:41:04;5.60;99.90
36800;DHT22;22752;51.960;5.886;2022-12-07T11:43:54;5.60;99.90
36800;DHT22;22752;51.960;5.886;2022-12-07T11:46:24;5.50;99.90
36800;DHT22;22752;51.960;5.886;2022-12-07T11:48:58;5.50;99.90
36800;DHT22;22752;51.960;5.886;2022-12-07T11:51:28;5.50;99.90
36800;DHT22;22752;51.960;5.886;2022-12-07T11:54:04;5.50;99.90
36800;DHT22;22752;51.960;5.886;2022-12-07T11:56:35;5.60;99.90
36800;DHT22;22752;51.960;5.886;2022-12-07T11:59:15;5.50;99.90
36800;DHT22;22752;51.960;5.886;2022-12-07T12:02:20;5.60;99.90
36800;DHT22;22752;51.960;5.886;2022-12-07T12:05:12;5.70;99.90
36800;DHT22;22752;51.960;5.886;2022-12-07T12:07:39;5.80;99.90
36800;DHT22;22752;51.960;5.886;2022-12-07T12:10:21;5.80;99.90
36800;DHT22;22752;51.960;5.886;2022-12-07T12:21:16;5.90;99.90
36800;DHT22;22752;51.960;5.886;2022-12-07T12:23:50;5.80;99.90
36800;DHT22;22752;51.960;5.886;2022-12-07T12:26:23;5.80;99.90
36800;DHT22;22752;51.960;5.886;2022-12-07T12:28:50;5.80;99.90
36800;DHT22;22752;51.960;5.886;2022-12-07T12:33:51;5.80;99.90
36800;DHT22;22752;51.960;5.886;2022-12-07T12:46:51;6.30;99.90
36800;DHT22;22752;51.960;5.886;2022-12-07T12:55:01;6.60;99.90
36800;DHT22;22752;51.960;5.886;2022-12-07T12:57:29;6.60;99.90
36800;DHT22;22752;51.960;5.886;2022-12-07T12:59:58;6.50;99.90
36800;DHT22;22752;51.960;5.886;2022-12-07T13:05:02;6.40;99.90
36800;DHT22;22752;51.960;5.886;2022-12-07T13:10:28;6.30;99.90
36800;DHT22;22752;51.960;5.886;2022-12-07T13:16:39;6.20;99.90
36800;DHT22;22752;51.960;5.886;2022-12-07T13:18:39;6.20;99.90
36800;DHT22;22752;51.960;5.886;2022-12-07T13:23:38;6.20;99.90
36800;DHT22;22752;51.960;5.886;2022-12-07T13:34:02;6.40;99.90
36800;DHT22;22752;51.960;5.886;2022-12-07T13:36:36;6.50;99.90
36800;DHT22;22752;51.960;5.886;2022-12-07T13:41:43;6.60;99.90
36800;DHT22;22752;51.960;5.886;2022-12-07T13:44:12;6.70;99.90
36800;DHT22;22752;51.960;5.886;2022-12-07T13:49:27;6.80;99.90
36800;DHT22;22752;51.960;5.886;2022-12-07T13:52:03;6.90;99.90
36800;DHT22;22752;51.960;5.886;2022-12-07T13:54:32;6.90;99.90
36800;DHT22;22752;51.960;5.886;2022-12-07T13:56:58;7.00;99.90
36800;DHT22;22752;51.960;5.886;2022-12-07T13:59:25;7.10;99.90
36800;DHT22;22752;51.960;5.886;2022-12-07T14:01:52;7.10;99.90
36800;DHT22;22752;51.960;5.886;2022-12-07T14:04:32;7.30;99.90
36800;DHT22;22752;51.960;5.886;2022-12-07T14:06:59;7.40;99.90
36800;DHT22;22752;51.960;5.886;2022-12-07T14:09:27;7.40;99.90
36800;DHT22;22752;51.960;5.886;2022-12-07T14:11:55;7.40;99.90
36800;DHT22;22752;51.960;5.886;2022-12-07T14:14:25;7.40;99.90
36800;DHT22;22752;51.960;5.886;2022-12-07T14:17:08;7.40;99.90
36800;DHT22;22752;51.960;5.886;2022-12-07T14:19:54;7.40;99.90
36800;DHT22;22752;51.960;5.886;2022-12-07T14:22:28;7.30;99.90
36800;DHT22;22752;51.960;5.886;2022-12-07T14:27:39;7.10;99.90
36800;DHT22;22752;51.960;5.886;2022-12-07T14:30:16;7.00;99.90
36800;DHT22;22752;51.960;5.886;2022-12-07T14:32:43;6.90;99.90
36800;DHT22;22752;51.960;5.886;2022-12-07T14:35:15;6.90;99.90
36800;DHT22;22752;51.960;5.886;2022-12-07T14:37:43;6.80;99.90
36800;DHT22;22752;51.960;5.886;2022-12-07T14:40:21;6.70;99.90
36800;DHT22;22752;51.960;5.886;2022-12-07T14:42:52;6.60;99.90
36800;DHT22;22752;51.960;5.886;2022-12-07T14:45:22;6.40;99.90
36800;DHT22;22752;51.960;5.886;2022-12-07T14:47:48;6.40;99.90
36800;DHT22;22752;51.960;5.886;2022-12-07T14:50:18;6.40;99.90
36800;DHT22;22752;51.960;5.886;2022-12-07T14:52:49;6.40;99.90
36800;DHT22;22752;51.960;5.886;2022-12-07T14:55:33;6.40;99.90
36800;DHT22;22752;51.960;5.886;2022-12-07T14:57:59;6.40;99.90
36800;DHT22;22752;51.960;5.886;2022-12-07T15:00:26;6.30;99.90
36800;DHT22;22752;51.960;5.886;2022-12-07T15:02:53;6.30;99.90
36800;DHT22;22752;51.960;5.886;2022-12-07T15:05:19;6.30;99.90
36800;DHT22;22752;51.960;5.886;2022-12-07T15:07:46;6.40;99.90
36800;DHT22;22752;51.960;5.886;2022-12-07T15:10:16;6.40;99.90
36800;DHT22;22752;51.960;5.886;2022-12-07T15:12:43;6.30;99.90
36800;DHT22;22752;51.960;5.886;2022-12-07T15:15:09;6.30;99.90
36800;DHT22;22752;51.960;5.886;2022-12-07T15:17:35;6.30;99.90
36800;DHT22;22752;51.960;5.886;2022-12-07T15:20:01;6.30;99.90
36800;DHT22;22752;51.960;5.886;2022-12-07T15:22:26;6.30;99.90
36800;DHT22;22752;51.960;5.886;2022-12-07T15:24:52;6.20;99.90
36800;DHT22;22752;51.960;5.886;2022-12-07T15:27:18;6.20;99.90
36800;DHT22;22752;51.960;5.886;2022-12-07T15:29:43;6.10;99.90
36800;DHT22;22752;51.960;5.886;2022-12-07T15:32:09;6.10;99.90
36800;DHT22;22752;51.960;5.886;2022-12-07T15:34:34;6.00;99.90
36800;DHT22;22752;51.960;5.886;2022-12-07T15:37:00;6.00;99.90
36800;DHT22;22752;51.960;5.886;2022-12-07T15:39:26;5.90;99.90
36800;DHT22;22752;51.960;5.886;2022-12-07T15:41:51;5.80;99.90
36800;DHT22;22752;51.960;5.886;2022-12-07T15:44:18;5.80;99.90
36800;DHT22;22752;51.960;5.886;2022-12-07T15:47:04;5.70;99.90
36800;DHT22;22752;51.960;5.886;2022-12-07T15:49:29;5.70;99.90
36800;DHT22;22752;51.960;5.886;2022-12-07T15:51:55;5.60;99.90
36800;DHT22;22752;51.960;5.886;2022-12-07T15:54:26;5.60;99.90
36800;DHT22;22752;51.960;5.886;2022-12-07T15:56:52;5.60;99.90
36800;DHT22;22752;51.960;5.886;2022-12-07T15:59:18;5.60;99.90
36800;DHT22;22752;51.960;5.886;2022-12-07T16:01:44;5.60;99.90
36800;DHT22;22752;51.960;5.886;2022-12-07T16:04:10;5.60;99.90
36800;DHT22;22752;51.960;5.886;2022-12-07T16:06:35;5.60;99.90
36800;DHT22;22752;51.960;5.886;2022-12-07T16:09:01;5.60;99.90
36800;DHT22;22752;51.960;5.886;2022-12-07T16:11:27;5.70;99.90
36800;DHT22;22752;51.960;5.886;2022-12-07T16:13:53;5.70;99.90
36800;DHT22;22752;51.960;5.886;2022-12-07T16:16:19;5.70;99.90
36800;DHT22;22752;51.960;5.886;2022-12-07T16:18:46;5.70;99.90
36800;DHT22;22752;51.960;5.886;2022-12-07T16:21:13;5.70;99.90
36800;DHT22;22752;51.960;5.886;2022-12-07T16:23:39;5.70;99.90
36800;DHT22;22752;51.960;5.886;2022-12-07T16:26:16;5.70;99.90
36800;DHT22;22752;51.960;5.886;2022-12-07T16:28:42;5.70;99.90
36800;DHT22;22752;51.960;5.886;2022-12-07T16:31:16;5.70;99.90
36800;DHT22;22752;51.960;5.886;2022-12-07T16:33:43;5.70;99.90
36800;DHT22;22752;51.960;5.886;2022-12-07T16:36:10;5.60;99.90
36800;DHT22;22752;51.960;5.886;2022-12-07T16:38:37;5.60;99.90
36800;DHT22;22752;51.960;5.886;2022-12-07T16:41:04;5.60;99.90
36800;DHT22;22752;51.960;5.886;2022-12-07T16:43:29;5.50;99.90
36800;DHT22;22752;51.960;5.886;2022-12-07T16:45:55;5.50;99.90
36800;DHT22;22752;51.960;5.886;2022-12-07T16:48:21;5.40;99.90
36800;DHT22;22752;51.960;5.886;2022-12-07T16:50:46;5.40;99.90
36800;DHT22;22752;51.960;5.886;2022-12-07T16:53:13;5.30;99.90
36800;DHT22;22752;51.960;5.886;2022-12-07T16:55:42;5.30;99.90
36800;DHT22;22752;51.960;5.886;2022-12-07T16:58:09;5.30;99.90
36800;DHT22;22752;51.960;5.886;2022-12-07T17:00:35;5.30;99.90
36800;DHT22;22752;51.960;5.886;2022-12-07T17:03:01;5.20;99.90
36800;DHT22;22752;51.960;5.886;2022-12-07T17:05:27;5.20;99.90
36800;DHT22;22752;51.960;5.886;2022-12-07T17:07:56;5.20;99.90
36800;DHT22;22752;51.960;5.886;2022-12-07T17:10:23;5.20;99.90
36800;DHT22;22752;51.960;5.886;2022-12-07T17:12:49;5.20;99.90
36800;DHT22;22752;51.960;5.886;2022-12-07T17:15:15;5.10;99.90
36800;DHT22;22752;51.960;5.886;2022-12-07T17:17:53;5.10;99.90
36800;DHT22;22752;51.960;5.886;2022-12-07T17:20:19;5.10;99.90
36800;DHT22;22752;51.960;5.886;2022-12-07T17:22:46;5.00;99.90
36800;DHT22;22752;51.960;5.886;2022-12-07T17:25:12;5.10;99.90
36800;DHT22;22752;51.960;5.886;2022-12-07T17:27:38;5.00;99.90
36800;DHT22;22752;51.960;5.886;2022-12-07T17:30:05;5.00;99.90
36800;DHT22;22752;51.960;5.886;2022-12-07T17:32:31;5.00;99.90
36800;DHT22;22752;51.960;5.886;2022-12-07T17:34:57;5.00;99.90
36800;DHT22;22752;51.960;5.886;2022-12-07T17:37:22;4.90;99.90
36800;DHT22;22752;51.960;5.886;2022-12-07T17:39:48;5.00;99.90
36800;DHT22;22752;51.960;5.886;2022-12-07T17:42:14;4.90;99.90
36800;DHT22;22752;51.960;5.886;2022-12-07T17:44:58;4.90;99.90
36800;DHT22;22752;51.960;5.886;2022-12-07T17:47:24;4.90;99.90
36800;DHT22;22752;51.960;5.886;2022-12-07T17:49:49;4.90;99.90
36800;DHT22;22752;51.960;5.886;2022-12-07T17:52:15;4.90;99.90
36800;DHT22;22752;51.960;5.886;2022-12-07T17:54:59;4.90;99.90
36800;DHT22;22752;51.960;5.886;2022-12-07T17:57:25;4.80;99.90
36800;DHT22;22752;51.960;5.886;2022-12-07T17:59:50;4.80;99.90
36800;DHT22;22752;51.960;5.886;2022-12-07T18:02:17;4.80;99.90
36800;DHT22;22752;51.960;5.886;2022-12-07T18:04:43;4.80;99.90
36800;DHT22;22752;51.960;5.886;2022-12-07T18:07:10;4.80;99.90
36800;DHT22;22752;51.960;5.886;2022-12-07T18:09:36;4.80;99.90
36800;DHT22;22752;51.960;5.886;2022-12-07T18:12:02;4.80;99.90
36800;DHT22;22752;51.960;5.886;2022-12-07T18:14:28;4.80;99.90